Time;durP1;ratioP1;P1;durP2;ratioP2;P2;SDS_P1;SDS_P2;PMS_P1;PMS_P2;Temp;Humidity;BMP_temperature;BMP_pressure;BME280_temperature;BME280_humidity;BME280_pressure;Samples;Min_cycle;Max_cycle;Signal;HPM_P1;HPM_P2
2023/01/15 00:01:43;;;;;;;11.00;2.20;;;6.30;99.90;;;;;;6220681;23;20073;-83
2023/01/15 00:04:11;;;;;;;17.80;2.22;;;6.20;99.90;;;;;;6189531;23;20043;-84
2023/01/15 00:06:40;;;;;;;16.75;2.38;;;6.20;99.90;;;;;;6208413;23;20016;-82
2023/01/15 00:09:07;;;;;;;16.40;1.98;;;6.10;99.90;;;;;;6183856;23;20021;-81
2023/01/15 00:11:33;;;;;;;13.43;1.85;;;6.30;99.90;;;;;;6211078;23;20021;-81
2023/01/15 00:13:59;;;;;;;12.23;1.95;;;6.10;99.90;;;;;;6211750;23;20020;-86
2023/01/15 00:16:27;;;;;;;12.70;2.28;;;6.30;99.90;;;;;;6214864;23;20013;-85
2023/01/15 00:18:56;;;;;;;14.48;2.20;;;6.20;99.90;;;;;;6211994;23;20036;-82
2023/01/15 00:21:23;;;;;;;21.23;2.25;;;6.40;99.90;;;;;;6210558;23;20337;-83
2023/01/15 00:29:19;;;;;;;16.88;2.20;;;6.30;99.90;;;;;;6225928;23;20028;-81
2023/01/15 00:31:53;;;;;;;16.60;2.08;;;6.30;99.90;;;;;;6189646;23;20247;-84
2023/01/15 00:34:19;;;;;;;20.98;2.42;;;6.30;99.90;;;;;;6187069;23;20314;-82
2023/01/15 00:36:44;;;;;;;20.20;2.35;;;6.30;99.90;;;;;;6210794;23;20028;-83
2023/01/15 00:39:10;;;;;;;18.52;2.72;;;6.30;99.90;;;;;;6211083;23;20056;-82
2023/01/15 00:41:39;;;;;;;21.13;2.10;;;6.20;99.90;;;;;;6212726;23;20039;-84
2023/01/15 00:44:04;;;;;;;18.52;2.42;;;6.30;99.90;;;;;;6212556;23;20409;-84
2023/01/15 00:46:30;;;;;;;17.45;2.30;;;6.10;99.90;;;;;;6212635;23;20417;-87
2023/01/15 00:49:08;;;;;;;19.63;2.17;;;6.10;99.90;;;;;;6214030;23;20087;-86
2023/01/15 00:51:34;;;;;;;16.83;2.17;;;6.30;99.90;;;;;;6187225;23;20077;-83
2023/01/15 00:54:01;;;;;;;16.60;2.45;;;6.30;99.90;;;;;;6186704;23;20015;-82
2023/01/15 00:56:27;;;;;;;19.30;2.67;;;6.30;99.90;;;;;;6212809;23;20063;-83
2023/01/15 00:58:53;;;;;;;17.15;2.30;;;6.20;99.90;;;;;;6188059;23;20124;-84
2023/01/15 01:01:19;;;;;;;17.38;2.38;;;6.20;99.90;;;;;;6212328;23;20505;-85
2023/01/15 01:03:51;;;;;;;16.38;2.33;;;6.30;99.90;;;;;;6212081;23;20459;-85
2023/01/15 01:06:17;;;;;;;16.67;2.17;;;6.10;99.90;;;;;;6187839;23;20121;-85
2023/01/15 01:08:46;;;;;;;17.17;2.45;;;6.20;99.90;;;;;;6187154;23;20087;-85
2023/01/15 01:11:15;;;;;;;14.98;1.90;;;6.30;99.90;;;;;;6187081;23;20088;-85
2023/01/15 01:13:41;;;;;;;17.08;2.38;;;6.20;99.90;;;;;;6187528;23;20012;-84
2023/01/15 01:16:29;;;;;;;13.35;1.77;;;6.20;99.90;;;;;;6186950;23;20048;-86
2023/01/15 01:19:19;;;;;;;22.83;2.45;;;6.10;99.90;;;;;;6212381;23;20039;-86
2023/01/15 01:21:45;;;;;;;17.02;2.58;;;6.10;99.90;;;;;;6212148;23;20075;-85
2023/01/15 01:24:14;;;;;;;14.90;1.95;;;6.20;99.90;;;;;;6211929;23;20043;-83
2023/01/15 01:26:40;;;;;;;22.98;2.67;;;6.20;99.90;;;;;;6212771;23;20374;-83
2023/01/15 01:29:05;;;;;;;16.92;2.35;;;6.10;99.90;;;;;;6221653;23;20013;-83
2023/01/15 01:31:31;;;;;;;14.38;2.70;;;6.10;99.90;;;;;;6226329;23;20019;-86
2023/01/15 01:34:36;;;;;;;25.17;3.00;;;6.30;99.90;;;;;;6234412;23;20012;-83
2023/01/15 01:37:02;;;;;;;17.23;2.55;;;6.20;99.90;;;;;;6221964;23;20112;-86
2023/01/15 01:39:27;;;;;;;24.50;2.92;;;6.20;99.90;;;;;;6212592;23;20174;-83
2023/01/15 01:41:53;;;;;;;21.30;2.80;;;6.20;99.90;;;;;;6211684;23;20091;-83
2023/01/15 01:44:31;;;;;;;21.15;2.33;;;6.20;99.90;;;;;;6211090;23;20020;-84
2023/01/15 01:46:57;;;;;;;18.45;2.28;;;6.10;99.90;;;;;;6213278;23;20506;-84
2023/01/15 01:49:24;;;;;;;25.73;2.50;;;6.00;99.90;;;;;;6211866;23;20013;-83
2023/01/15 01:51:59;;;;;;;22.23;2.50;;;6.20;99.90;;;;;;6211193;23;20290;-85
2023/01/15 01:54:28;;;;;;;19.25;2.42;;;6.20;99.90;;;;;;6211513;23;20171;-83
2023/01/15 01:56:54;;;;;;;20.13;2.45;;;6.20;99.90;;;;;;6186790;23;20012;-85
2023/01/15 01:59:22;;;;;;;14.50;2.65;;;6.20;99.90;;;;;;6186885;23;20441;-85
2023/01/15 02:01:48;;;;;;;34.95;2.90;;;6.00;99.90;;;;;;6212358;23;20013;-83
2023/01/15 02:04:16;;;;;;;16.52;1.98;;;6.20;99.90;;;;;;6186302;23;20008;-86
2023/01/15 02:06:42;;;;;;;14.50;2.35;;;6.20;99.90;;;;;;6210587;23;20021;-83
2023/01/15 02:09:08;;;;;;;16.15;2.33;;;6.10;99.90;;;;;;6211490;23;20275;-85
2023/01/15 02:11:34;;;;;;;15.90;2.40;;;6.10;99.90;;;;;;6186693;23;20433;-85
2023/01/15 02:14:45;;;;;;;18.48;2.55;;;6.20;99.90;;;;;;6184946;23;20012;-86
2023/01/15 02:17:17;;;;;;;22.70;2.88;;;6.20;99.90;;;;;;6118159;23;20042;-83
2023/01/15 02:20:01;;;;;;;17.80;2.33;;;6.10;99.90;;;;;;6095484;23;20039;-84
2023/01/15 02:22:32;;;;;;;20.15;2.42;;;6.20;99.90;;;;;;6120377;23;20037;-83
2023/01/15 02:25:10;;;;;;;21.08;2.72;;;6.00;99.90;;;;;;6097022;23;20020;-86
2023/01/15 02:27:43;;;;;;;18.10;2.40;;;6.00;99.90;;;;;;6095594;23;20064;-86
2023/01/15 02:30:08;;;;;;;18.73;2.50;;;6.10;99.90;;;;;;6072794;23;20022;-84
2023/01/15 02:32:42;;;;;;;16.58;2.45;;;6.10;99.90;;;;;;6069803;23;20017;-83
2023/01/15 02:35:31;;;;;;;25.35;3.20;;;6.10;99.90;;;;;;6095711;23;20447;-86
2023/01/15 02:38:02;;;;;;;20.42;2.60;;;6.10;99.90;;;;;;6070993;23;20081;-87
2023/01/15 02:40:30;;;;;;;19.38;3.03;;;6.10;99.90;;;;;;6120666;23;20018;-83
2023/01/15 02:42:58;;;;;;;15.43;2.83;;;6.10;99.90;;;;;;6071160;23;20018;-86
2023/01/15 02:45:28;;;;;;;26.65;3.00;;;6.00;99.90;;;;;;6072130;23;20168;-84
2023/01/15 02:47:57;;;;;;;16.77;2.47;;;6.10;99.90;;;;;;6163759;23;20012;-86
2023/01/15 02:50:27;;;;;;;16.67;2.38;;;6.00;99.90;;;;;;6211163;23;20277;-84
2023/01/15 02:53:00;;;;;;;15.95;2.47;;;6.20;99.90;;;;;;6208993;23;20507;-84
2023/01/15 02:55:31;;;;;;;19.42;2.40;;;6.20;99.90;;;;;;6186112;23;20333;-83
2023/01/15 02:58:00;;;;;;;14.77;2.08;;;6.00;99.90;;;;;;6211242;23;20024;-84
2023/01/15 03:00:31;;;;;;;21.08;2.55;;;6.10;99.90;;;;;;6211127;23;20412;-84
2023/01/15 03:03:32;;;;;;;20.27;2.58;;;5.90;99.90;;;;;;6185336;23;20013;-85
2023/01/15 03:06:05;;;;;;;16.85;2.38;;;6.00;99.90;;;;;;6210831;23;20044;-85
2023/01/15 03:08:30;;;;;;;18.67;2.70;;;6.10;99.90;;;;;;6211832;23;20088;-86
2023/01/15 03:11:11;;;;;;;16.92;2.35;;;6.10;99.90;;;;;;6212287;23;20086;-83
2023/01/15 03:13:50;;;;;;;20.80;2.50;;;6.10;99.90;;;;;;6185553;23;20013;-85
2023/01/15 03:16:33;;;;;;;17.73;2.83;;;6.10;99.90;;;;;;6187680;23;20708;-84
2023/01/15 03:19:02;;;;;;;16.48;2.80;;;6.10;99.90;;;;;;6212086;23;20876;-84
2023/01/15 03:21:40;;;;;;;20.52;2.72;;;6.20;99.90;;;;;;6209981;23;20379;-86
2023/01/15 03:24:10;;;;;;;17.02;2.55;;;6.10;99.90;;;;;;6183296;23;20101;-85
2023/01/15 03:26:36;;;;;;;20.38;2.88;;;6.10;99.90;;;;;;6184461;23;20092;-83
2023/01/15 03:29:04;;;;;;;16.60;2.35;;;6.20;99.90;;;;;;6211684;23;20143;-85
2023/01/15 03:31:32;;;;;;;21.00;3.13;;;6.10;99.90;;;;;;6210076;23;20416;-85
2023/01/15 03:33:58;;;;;;;22.38;3.17;;;6.00;99.90;;;;;;6209523;23;20041;-86
2023/01/15 03:36:24;;;;;;;19.38;2.65;;;5.90;99.90;;;;;;6191064;23;20384;-84
2023/01/15 03:38:50;;;;;;;18.45;2.38;;;6.00;99.90;;;;;;6184335;23;20016;-82
2023/01/15 03:41:34;;;;;;;18.30;2.35;;;6.00;99.90;;;;;;6209638;23;20444;-83
2023/01/15 03:44:26;;;;;;;19.77;2.83;;;5.90;99.90;;;;;;6185381;23;20103;-83
2023/01/15 03:47:00;;;;;;;14.05;2.67;;;5.80;99.90;;;;;;6222480;23;20017;-83
2023/01/15 03:49:40;;;;;;;19.80;2.85;;;5.90;99.90;;;;;;6213526;23;20012;-83
2023/01/15 03:52:25;;;;;;;27.95;2.80;;;5.80;99.90;;;;;;6212036;23;20282;-85
2023/01/15 03:55:27;;;;;;;23.73;2.95;;;6.00;99.90;;;;;;6189213;23;20068;-84
2023/01/15 03:58:16;;;;;;;13.88;2.78;;;5.90;99.90;;;;;;6134585;23;20025;-82
2023/01/15 04:00:49;;;;;;;19.90;2.47;;;5.90;99.90;;;;;;6123642;23;20427;-85
2023/01/15 04:03:18;;;;;;;20.33;2.97;;;5.90;99.90;;;;;;6123626;23;20018;-84
2023/01/15 04:06:03;;;;;;;20.90;2.88;;;6.00;99.90;;;;;;6120775;23;20080;-85
2023/01/15 04:08:32;;;;;;;29.00;2.80;;;5.90;99.90;;;;;;6120319;23;20184;-82
2023/01/15 04:11:00;;;;;;;19.90;2.42;;;5.90;99.90;;;;;;6121295;23;20018;-82
2023/01/15 04:13:26;;;;;;;22.50;2.88;;;5.90;99.90;;;;;;6120366;23;20056;-83
2023/01/15 04:15:52;;;;;;;18.35;2.42;;;5.80;99.90;;;;;;6119911;23;20014;-83
2023/01/15 04:18:18;;;;;;;25.77;3.25;;;5.90;99.90;;;;;;6128509;23;20025;-83
2023/01/15 04:20:45;;;;;;;14.32;2.10;;;5.90;99.90;;;;;;6127243;23;20299;-83
2023/01/15 04:23:11;;;;;;;16.75;2.45;;;5.80;99.90;;;;;;6119311;23;20464;-83
2023/01/15 04:25:36;;;;;;;15.20;1.92;;;5.90;99.90;;;;;;6120515;23;20056;-81
2023/01/15 04:28:02;;;;;;;19.15;2.72;;;5.80;99.90;;;;;;6119613;23;20204;-84
2023/01/15 04:30:28;;;;;;;15.75;2.45;;;5.80;99.90;;;;;;6122228;23;20018;-81
2023/01/15 04:32:54;;;;;;;24.27;2.78;;;5.80;99.90;;;;;;6148074;23;20044;-82
2023/01/15 04:35:19;;;;;;;21.52;2.92;;;5.70;99.90;;;;;;6182405;23;20008;-83
2023/01/15 04:37:46;;;;;;;14.45;2.38;;;5.70;99.90;;;;;;6182450;23;20703;-84
2023/01/15 04:44:05;;;;;;;19.77;2.45;;;5.70;99.90;;;;;;6208760;23;20023;-82
2023/01/15 04:45:44;;;;;;;18.95;2.38;;;5.70;99.90;;;;;;6211786;23;20060;-82
2023/01/15 04:48:11;;;;;;;24.15;2.85;;;5.60;99.90;;;;;;6184653;23;20009;-84
2023/01/15 04:50:37;;;;;;;19.13;2.75;;;5.70;99.90;;;;;;6184492;23;20051;-83
2023/01/15 04:53:03;;;;;;;18.65;2.42;;;5.70;99.90;;;;;;6207808;23;20021;-82
2023/01/15 04:55:29;;;;;;;21.33;2.65;;;5.70;99.90;;;;;;6211293;23;20031;-84
2023/01/15 04:57:55;;;;;;;16.50;2.10;;;5.70;99.90;;;;;;6185882;23;20372;-84
2023/01/15 05:00:22;;;;;;;24.92;3.00;;;5.60;99.90;;;;;;6187869;23;20016;-83
2023/01/15 05:02:48;;;;;;;16.00;2.22;;;5.60;99.90;;;;;;6186132;23;20476;-81
2023/01/15 05:05:14;;;;;;;20.35;2.88;;;5.70;99.90;;;;;;6212365;23;20408;-84
2023/01/15 05:07:40;;;;;;;20.77;2.55;;;5.60;99.90;;;;;;6187739;23;20063;-82
2023/01/15 05:10:06;;;;;;;20.60;2.55;;;5.50;99.90;;;;;;6187111;23;20022;-82
2023/01/15 05:12:33;;;;;;;29.55;2.90;;;5.60;99.90;;;;;;6211702;23;20298;-82
2023/01/15 05:14:58;;;;;;;17.92;2.72;;;5.50;99.90;;;;;;6186775;23;20017;-82
2023/01/15 05:17:24;;;;;;;20.77;2.53;;;5.50;99.90;;;;;;6211092;23;20325;-82
2023/01/15 05:19:50;;;;;;;18.95;3.15;;;5.50;99.90;;;;;;6211789;23;20447;-82
2023/01/15 05:22:15;;;;;;;12.38;2.03;;;5.60;99.90;;;;;;6211461;23;20019;-82
2023/01/15 05:24:41;;;;;;;15.77;2.28;;;5.50;99.90;;;;;;6186148;23;20012;-82
2023/01/15 05:27:07;;;;;;;18.02;2.53;;;5.40;99.90;;;;;;6186864;23;20336;-84
2023/01/15 05:29:33;;;;;;;18.25;2.58;;;5.50;99.90;;;;;;6187215;23;20021;-84
2023/01/15 05:31:59;;;;;;;19.27;2.50;;;5.50;99.90;;;;;;6186210;23;20009;-81
2023/01/15 05:34:25;;;;;;;22.75;2.97;;;5.30;99.90;;;;;;6185906;23;20044;-82
2023/01/15 05:36:51;;;;;;;19.50;2.50;;;5.30;99.90;;;;;;6211534;23;20333;-82
2023/01/15 05:39:17;;;;;;;17.90;2.90;;;5.40;99.90;;;;;;6210871;23;20016;-83
2023/01/15 05:41:48;;;;;;;16.05;2.30;;;5.40;99.90;;;;;;6211691;23;20032;-82
2023/01/15 05:44:16;;;;;;;16.20;2.50;;;5.40;99.90;;;;;;6185936;23;20008;-82
2023/01/15 05:46:43;;;;;;;28.13;2.97;;;5.20;99.90;;;;;;6185701;23;20016;-81
2023/01/15 05:49:16;;;;;;;14.25;2.03;;;5.30;99.90;;;;;;6211178;23;20425;-82
2023/01/15 05:51:43;;;;;;;22.02;2.92;;;5.30;99.90;;;;;;6184519;23;20052;-83
2023/01/15 05:54:13;;;;;;;18.25;2.38;;;5.20;99.90;;;;;;6210144;23;20449;-83
2023/01/15 05:56:40;;;;;;;16.35;2.45;;;5.20;99.90;;;;;;6186738;23;20013;-85
2023/01/15 05:59:07;;;;;;;17.58;2.47;;;5.10;99.90;;;;;;6185542;23;20441;-84
2023/01/15 06:01:33;;;;;;;16.42;2.67;;;5.10;99.90;;;;;;6183596;23;20035;-84
2023/01/15 06:04:00;;;;;;;16.88;2.05;;;5.10;99.90;;;;;;6210092;23;20016;-84
2023/01/15 06:06:26;;;;;;;17.42;2.40;;;5.20;99.90;;;;;;6183623;23;20017;-84
2023/01/15 06:08:52;;;;;;;15.98;2.60;;;5.00;99.90;;;;;;6184573;23;20013;-83
2023/01/15 06:11:18;;;;;;;19.20;2.15;;;5.00;99.90;;;;;;6211154;23;20017;-82
2023/01/15 06:13:43;;;;;;;15.85;2.50;;;5.00;99.90;;;;;;6186395;23;20314;-83
2023/01/15 06:16:10;;;;;;;25.88;3.22;;;5.10;99.90;;;;;;6186112;23;20019;-83
2023/01/15 06:18:37;;;;;;;22.60;2.95;;;5.20;99.90;;;;;;6186095;23;20132;-81
2023/01/15 06:21:08;;;;;;;15.80;2.45;;;5.00;99.90;;;;;;6209771;23;20020;-84
2023/01/15 06:23:37;;;;;;;16.90;2.50;;;5.10;99.90;;;;;;6210236;23;20020;-82
2023/01/15 06:26:06;;;;;;;12.55;2.08;;;5.10;99.90;;;;;;6192170;23;20035;-81
2023/01/15 06:28:32;;;;;;;12.38;1.98;;;5.10;99.90;;;;;;6186752;23;20012;-81
2023/01/15 06:30:58;;;;;;;17.40;2.22;;;5.10;99.90;;;;;;6184686;23;20615;-85
2023/01/15 06:33:24;;;;;;;23.65;2.45;;;5.20;99.90;;;;;;6186482;23;20016;-83
2023/01/15 06:35:51;;;;;;;20.55;2.67;;;5.20;99.90;;;;;;6186119;23;20017;-83
2023/01/15 06:38:17;;;;;;;14.88;2.28;;;5.20;99.90;;;;;;6186221;23;20031;-82
2023/01/15 06:40:43;;;;;;;17.05;2.85;;;5.20;99.90;;;;;;6209747;23;20020;-83
2023/01/15 06:48:40;;;;;;;14.35;2.50;;;5.10;99.90;;;;;;6211514;23;20020;-83
2023/01/15 06:51:06;;;;;;;17.85;2.60;;;5.10;99.90;;;;;;6208934;23;20100;-82
2023/01/15 06:53:31;;;;;;;15.38;2.33;;;5.10;99.90;;;;;;6159492;23;20317;-81
2023/01/15 06:55:57;;;;;;;16.10;2.38;;;5.10;99.90;;;;;;6184534;23;20016;-83
2023/01/15 06:58:22;;;;;;;14.18;2.20;;;5.00;99.90;;;;;;6185995;23;20488;-82
2023/01/15 07:00:54;;;;;;;16.88;1.90;;;5.00;99.90;;;;;;6190641;23;20039;-82
2023/01/15 07:03:20;;;;;;;15.65;1.88;;;5.10;99.90;;;;;;6189619;23;20016;-81
2023/01/15 07:05:46;;;;;;;15.23;2.08;;;5.10;99.90;;;;;;6188199;23;20116;-82
2023/01/15 07:08:11;;;;;;;12.18;2.03;;;5.10;99.90;;;;;;6185237;23;20020;-82
2023/01/15 07:10:37;;;;;;;13.77;1.95;;;5.00;99.90;;;;;;6185077;23;20171;-83
2023/01/15 07:13:03;;;;;;;18.95;2.33;;;5.20;99.90;;;;;;6185602;23;20017;-84
2023/01/15 07:15:29;;;;;;;15.02;2.15;;;5.10;99.90;;;;;;6186183;23;20067;-81
2023/01/15 07:17:56;;;;;;;15.95;2.45;;;5.10;99.90;;;;;;6188922;23;20093;-82
2023/01/15 07:20:34;;;;;;;16.08;2.53;;;5.00;99.90;;;;;;6186626;23;20017;-84
2023/01/15 07:22:59;;;;;;;13.32;1.92;;;5.10;99.90;;;;;;6186822;23;20150;-82
2023/01/15 07:25:25;;;;;;;18.38;2.55;;;5.10;99.90;;;;;;6212294;23;20452;-80
2023/01/15 07:27:51;;;;;;;15.18;1.90;;;5.00;99.90;;;;;;6216361;23;20064;-81
2023/01/15 07:30:17;;;;;;;15.40;2.20;;;5.10;99.90;;;;;;6217175;23;20017;-82
2023/01/15 07:32:42;;;;;;;16.60;1.90;;;5.10;99.90;;;;;;6208745;23;20043;-80
2023/01/15 07:35:09;;;;;;;16.85;2.00;;;5.10;99.90;;;;;;6184441;23;20008;-82
2023/01/15 07:37:34;;;;;;;14.27;2.10;;;5.20;99.90;;;;;;6184226;23;20016;-81
2023/01/15 07:40:00;;;;;;;14.68;2.40;;;5.10;99.90;;;;;;6184663;23;20067;-82
2023/01/15 07:50:38;;;;;;;19.25;2.50;;;5.10;99.90;;;;;;6210173;23;20051;-82
2023/01/15 07:53:04;;;;;;;14.85;2.22;;;5.10;99.90;;;;;;6208754;23;20028;-81
2023/01/15 07:55:30;;;;;;;13.77;1.88;;;5.10;99.90;;;;;;6210167;23;20314;-83
2023/01/15 07:57:55;;;;;;;15.30;2.00;;;5.10;99.90;;;;;;6210080;23;20012;-80
2023/01/15 08:00:23;;;;;;;11.57;2.20;;;5.10;99.90;;;;;;6185337;23;20092;-82
2023/01/15 08:02:49;;;;;;;15.00;2.22;;;5.10;99.90;;;;;;6209267;23;20012;-82
2023/01/15 08:05:16;;;;;;;13.60;2.20;;;5.10;99.90;;;;;;6184406;23;20380;-81
2023/01/15 08:07:42;;;;;;;16.33;2.15;;;5.10;99.90;;;;;;6158698;23;20023;-80
2023/01/15 08:10:10;;;;;;;17.13;3.13;;;5.20;99.90;;;;;;6209672;23;20282;-81
2023/01/15 08:15:20;;;;;;;15.63;1.90;;;5.20;99.90;;;;;;6209069;23;20048;-79
2023/01/15 08:17:48;;;;;;;15.70;2.08;;;5.30;99.90;;;;;;6208872;23;20036;-82
2023/01/15 08:20:23;;;;;;;13.98;2.30;;;5.30;99.90;;;;;;6184369;23;20100;-82
2023/01/15 08:22:49;;;;;;;;;;;5.40;99.90;;;;;;6209779;23;20128;-79
2023/01/15 08:25:18;;;;;;;13.95;1.70;;;5.40;99.90;;;;;;6208662;23;19947;-82
2023/01/15 08:27:44;;;;;;;10.57;1.70;;;5.40;99.90;;;;;;6181953;23;20075;-79
2023/01/15 08:30:15;;;;;;;11.00;2.00;;;5.40;99.90;;;;;;6184205;23;20013;-80
2023/01/15 08:32:41;;;;;;;13.63;2.05;;;5.30;99.90;;;;;;6184880;23;20488;-78
2023/01/15 08:35:07;;;;;;;16.52;2.65;;;5.30;99.90;;;;;;6159607;23;20044;-80
2023/01/15 08:37:32;;;;;;;12.73;2.03;;;5.30;99.90;;;;;;6183578;23;20169;-80
2023/01/15 08:39:58;;;;;;;15.18;2.30;;;5.20;99.90;;;;;;6184178;23;20411;-81
2023/01/15 08:42:24;;;;;;;14.88;2.08;;;5.30;99.90;;;;;;6209248;23;20019;-79
2023/01/15 08:44:49;;;;;;;18.70;2.53;;;5.30;99.90;;;;;;6209806;23;20067;-82
2023/01/15 08:47:16;;;;;;;14.68;2.28;;;5.40;99.90;;;;;;6184034;23;20020;-79
2023/01/15 08:49:42;;;;;;;16.92;2.13;;;5.30;99.90;;;;;;6210475;23;20092;-79
2023/01/15 08:52:08;;;;;;;12.63;2.00;;;5.30;99.90;;;;;;6210082;23;20016;-79
2023/01/15 08:54:34;;;;;;;12.48;1.85;;;5.30;99.90;;;;;;6208303;23;20404;-80
2023/01/15 08:57:00;;;;;;;15.85;1.85;;;5.20;99.90;;;;;;6183271;23;20051;-81
2023/01/15 08:59:26;;;;;;;15.05;2.28;;;5.00;99.90;;;;;;6210614;23;20485;-80
2023/01/15 09:01:52;;;;;;;14.15;2.38;;;4.80;99.90;;;;;;6185507;23;20459;-81
2023/01/15 09:04:19;;;;;;;14.13;2.30;;;4.70;99.90;;;;;;6182565;23;20052;-81
2023/01/15 09:06:47;;;;;;;18.98;2.25;;;4.60;99.90;;;;;;6209445;23;20090;-82
2023/01/15 09:09:13;;;;;;;14.00;2.30;;;4.40;99.90;;;;;;6209138;23;20060;-80
2023/01/15 09:11:40;;;;;;;14.63;2.53;;;4.50;99.90;;;;;;6183595;23;20389;-82
2023/01/15 09:14:07;;;;;;;13.75;2.03;;;4.50;99.90;;;;;;6207404;23;20044;-81
2023/01/15 09:16:36;;;;;;;17.88;2.92;;;4.50;99.90;;;;;;6207393;23;20012;-81
2023/01/15 09:19:03;;;;;;;15.32;1.80;;;4.70;99.90;;;;;;6207203;23;20013;-80
2023/01/15 09:21:29;;;;;;;15.07;1.77;;;4.70;99.90;;;;;;6206730;23;20013;-77
2023/01/15 09:23:54;;;;;;;14.85;1.50;;;5.00;99.90;;;;;;6207697;23;20016;-80
2023/01/15 09:26:32;;;;;;;16.50;2.13;;;4.90;99.90;;;;;;6207795;23;20313;-82
2023/01/15 09:28:59;;;;;;;18.33;2.05;;;4.90;99.90;;;;;;6206422;23;20425;-79
2023/01/15 09:31:28;;;;;;;12.88;2.15;;;5.00;99.90;;;;;;6209238;23;20039;-82
2023/01/15 09:33:53;;;;;;;16.48;2.55;;;5.00;99.90;;;;;;6206890;23;20101;-82
2023/01/15 09:36:28;;;;;;;12.80;2.33;;;5.00;99.90;;;;;;6182243;23;20013;-82
2023/01/15 09:38:55;;;;;;;16.80;2.60;;;5.10;99.90;;;;;;6184451;23;20637;-79
2023/01/15 09:44:35;;;;;;;19.88;2.95;;;5.30;99.90;;;;;;6207128;23;20067;-82
2023/01/15 09:47:27;;;;;;;18.00;2.45;;;5.10;99.90;;;;;;6209894;23;20053;-83
2023/01/15 09:54:06;;;;;;;21.60;2.45;;;5.50;99.90;;;;;;6111609;23;20103;-83
2023/01/15 09:56:35;;;;;;;18.90;2.53;;;5.50;99.90;;;;;;6038593;23;20110;-80
2023/01/15 09:59:15;;;;;;;16.52;2.25;;;5.60;99.90;;;;;;6090055;23;20054;-82
2023/01/15 10:01:42;;;;;;;18.25;2.45;;;5.60;99.90;;;;;;6091691;23;20027;-82
2023/01/15 10:04:28;;;;;;;17.90;2.25;;;5.80;99.90;;;;;;6066971;23;20018;-83
2023/01/15 10:07:39;;;;;;;15.77;2.10;;;6.00;99.90;;;;;;6042094;23;20442;-81
2023/01/15 10:10:14;;;;;;;16.23;2.30;;;6.10;99.90;;;;;;6065449;23;20016;-81
2023/01/15 10:12:44;;;;;;;14.80;2.55;;;6.10;99.90;;;;;;6064528;23;20097;-81
2023/01/15 10:15:12;;;;;;;16.85;2.20;;;6.20;99.90;;;;;;6065856;23;20404;-84
2023/01/15 10:17:44;;;;;;;14.48;3.17;;;6.10;99.90;;;;;;6044381;23;20019;-83
2023/01/15 10:20:35;;;;;;;17.58;2.15;;;6.20;99.90;;;;;;6046283;23;20617;-83
2023/01/15 10:23:19;;;;;;;15.18;2.25;;;6.20;99.90;;;;;;6101905;23;20430;-82
2023/01/15 10:25:50;;;;;;;18.85;2.47;;;6.20;99.90;;;;;;6105805;23;20025;-82
2023/01/15 10:28:26;;;;;;;15.68;2.35;;;6.30;99.90;;;;;;6129689;23;20445;-83
2023/01/15 10:30:54;;;;;;;18.13;2.65;;;6.40;99.90;;;;;;6187261;23;20017;-83
2023/01/15 10:33:35;;;;;;;14.50;2.22;;;6.60;99.90;;;;;;6139091;23;20025;-84
2023/01/15 10:36:07;;;;;;;14.73;1.92;;;6.70;99.90;;;;;;6155885;23;20113;-84
2023/01/15 10:38:52;;;;;;;12.55;2.00;;;6.90;99.90;;;;;;6156684;23;20108;-83
2023/01/15 10:41:18;;;;;;;;;;;6.90;99.90;;;;;;6151519;23;20017;-84
2023/01/15 10:43:49;;;;;;;17.30;2.10;;;7.00;99.90;;;;;;6129297;23;19986;-85
2023/01/15 10:46:17;;;;;;;17.80;2.25;;;6.90;99.90;;;;;;6130967;23;20036;-82
2023/01/15 10:49:01;;;;;;;19.45;2.67;;;6.70;99.90;;;;;;6157087;23;20024;-82
2023/01/15 10:52:26;;;;;;;18.05;2.58;;;6.70;99.90;;;;;;6138459;23;20305;-82
2023/01/15 10:55:24;;;;;;;18.58;2.80;;;6.80;99.90;;;;;;6180164;23;20349;-81
2023/01/15 10:58:08;;;;;;;14.13;2.90;;;6.80;99.90;;;;;;6076133;23;20050;-83
2023/01/15 11:00:35;;;;;;;16.20;2.60;;;6.90;99.90;;;;;;6096408;23;20088;-82
2023/01/15 11:03:07;;;;;;;17.20;2.47;;;6.90;99.90;;;;;;6116555;23;20037;-84
2023/01/15 11:08:57;;;;;;;15.80;2.13;;;6.90;99.90;;;;;;6118777;23;20097;-81
2023/01/15 11:19:35;;;;;;;14.95;2.40;;;7.00;99.90;;;;;;6117640;23;20049;-80
2023/01/15 11:20:31;;;;;;;15.07;2.45;;;7.30;99.90;;;;;;6092196;23;20383;-80
2023/01/15 11:26:25;;;;;;;13.45;2.10;;;7.50;99.90;;;;;;6093168;23;20018;-82
2023/01/15 11:28:52;;;;;;;13.90;2.63;;;7.40;99.90;;;;;;6095034;23;20021;-80
2023/01/15 11:31:18;;;;;;;17.80;2.38;;;7.20;99.90;;;;;;6094767;23;20124;-79
2023/01/15 11:34:06;;;;;;;18.70;2.60;;;7.20;99.90;;;;;;6104417;23;20010;-83
2023/01/15 11:36:33;;;;;;;17.55;2.50;;;7.20;99.90;;;;;;6211597;23;20270;-81
2023/01/15 11:38:58;;;;;;;16.83;2.97;;;7.20;99.90;;;;;;6184684;23;20012;-82
2023/01/15 11:50:42;;;;;;;19.38;2.60;;;7.10;99.90;;;;;;6184820;23;20275;-80
2023/01/15 11:52:49;;;;;;;18.75;2.97;;;7.10;99.90;;;;;;6207528;23;20052;-81
2023/01/15 11:55:20;;;;;;;28.00;2.90;;;6.90;99.90;;;;;;6208430;23;20019;-80
2023/01/15 11:57:47;;;;;;;15.60;3.20;;;6.70;99.90;;;;;;6208622;23;20392;-80
2023/01/15 12:00:24;;;;;;;24.13;3.25;;;6.70;99.90;;;;;;6209945;23;20485;-81
2023/01/15 12:02:55;;;;;;;22.65;3.15;;;6.60;99.90;;;;;;6184037;23;20016;-80
2023/01/15 12:05:24;;;;;;;18.95;2.60;;;6.60;99.90;;;;;;6186257;23;20013;-83
2023/01/15 12:07:53;;;;;;;17.60;2.85;;;6.60;99.90;;;;;;6210209;23;20016;-82
2023/01/15 12:13:53;;;;;;;19.70;2.97;;;6.70;99.90;;;;;;6210411;23;20479;-80
2023/01/15 12:16:44;;;;;;;21.10;2.67;;;6.70;99.90;;;;;;6094810;23;20029;-82
2023/01/15 12:19:37;;;;;;;12.07;2.55;;;6.70;99.90;;;;;;6096494;23;20360;-77
2023/01/15 12:22:16;;;;;;;17.20;2.78;;;6.60;99.90;;;;;;6095801;23;20320;-81
2023/01/15 12:24:54;;;;;;;22.10;2.80;;;6.60;99.90;;;;;;6092121;23;20025;-80
2023/01/15 12:27:33;;;;;;;17.52;2.58;;;6.50;99.90;;;;;;6119694;23;20422;-80
2023/01/15 12:30:09;;;;;;;14.43;1.90;;;6.50;99.90;;;;;;6092032;23;20018;-80
2023/01/15 12:32:41;;;;;;;7.10;1.20;;;5.90;99.90;;;;;;6092188;23;20025;-82
2023/01/15 12:35:30;;;;;;;10.70;1.60;;;5.50;99.90;;;;;;6067286;23;20014;-82
2023/01/15 12:38:14;;;;;;;8.82;1.00;;;5.30;99.90;;;;;;6067983;23;20014;-80
2023/01/15 12:40:43;;;;;;;7.80;1.75;;;4.80;99.90;;;;;;6069409;23;20287;-80
2023/01/15 12:46:11;;;;;;;9.15;1.48;;;5.10;99.90;;;;;;6093026;23;20054;-81
2023/01/15 12:48:56;;;;;;;7.10;1.42;;;5.00;99.90;;;;;;6068210;23;20022;-79
2023/01/15 12:51:49;;;;;;;10.38;1.40;;;5.10;99.90;;;;;;6093092;23;20445;-80
2023/01/15 12:54:21;;;;;;;13.43;1.80;;;5.20;99.90;;;;;;6191986;23;20032;-83
2023/01/15 12:57:00;;;;;;;10.63;1.65;;;5.00;99.90;;;;;;6209980;23;20082;-79
2023/01/15 12:59:36;;;;;;;8.75;1.38;;;5.00;99.90;;;;;;6185443;23;20074;-83
2023/01/15 13:02:34;;;;;;;14.75;2.00;;;5.20;99.90;;;;;;6208318;23;20013;-81
2023/01/15 13:05:16;;;;;;;14.20;1.73;;;5.10;99.90;;;;;;6093989;23;20037;-83
2023/01/15 13:07:51;;;;;;;7.82;1.40;;;5.50;99.90;;;;;;6069930;23;20393;-79
2023/01/15 13:10:21;;;;;;;9.90;1.42;;;5.40;99.90;;;;;;6097010;23;20014;-81
2023/01/15 13:12:47;;;;;;;10.38;1.60;;;5.20;99.90;;;;;;6093248;23;20050;-80
2023/01/15 13:15:19;;;;;;;10.50;1.75;;;5.50;99.90;;;;;;6091597;23;20077;-81
2023/01/15 13:18:00;;;;;;;9.95;1.70;;;5.50;99.90;;;;;;6067267;23;20499;-80
2023/01/15 13:20:45;;;;;;;6.45;1.23;;;5.50;99.90;;;;;;6087447;23;20081;-79
2023/01/15 13:23:41;;;;;;;9.00;1.60;;;5.20;99.90;;;;;;6089944;23;20180;-78
2023/01/15 13:26:23;;;;;;;8.82;1.30;;;5.50;99.90;;;;;;6116297;23;20240;-79
2023/01/15 13:29:14;;;;;;;9.05;1.30;;;5.30;99.90;;;;;;6066778;23;20336;-80
2023/01/15 13:31:40;;;;;;;11.82;1.52;;;5.50;99.90;;;;;;6118307;23;20401;-80
2023/01/15 13:34:23;;;;;;;6.50;0.90;;;5.40;99.90;;;;;;6089997;23;20040;-82
2023/01/15 13:36:52;;;;;;;7.95;1.52;;;5.40;99.90;;;;;;6113325;23;20478;-79
2023/01/15 13:39:24;;;;;;;10.32;1.58;;;5.20;99.90;;;;;;6089550;23;20010;-78
2023/01/15 13:44:46;;;;;;;5.95;1.27;;;5.50;99.90;;;;;;6205882;23;20389;-81
2023/01/15 13:47:19;;;;;;;15.93;2.03;;;5.60;99.90;;;;;;6181000;23;20008;-81
2023/01/15 13:49:49;;;;;;;9.02;1.90;;;5.20;99.90;;;;;;6185378;23;20027;-82
2023/01/15 13:52:28;;;;;;;9.50;1.15;;;5.20;99.90;;;;;;6210110;23;20040;-81
2023/01/15 13:55:00;;;;;;;7.97;1.27;;;5.10;99.90;;;;;;6182532;23;20024;-83
2023/01/15 13:57:37;;;;;;;9.73;3.33;;;5.10;99.90;;;;;;6184644;23;20016;-82
2023/01/15 14:00:05;;;;;;;4.82;1.00;;;4.60;99.90;;;;;;6211368;23;20022;-84
2023/01/15 14:02:37;;;;;;;6.18;0.82;;;4.90;99.90;;;;;;6182924;23;20075;-82
2023/01/15 14:05:27;;;;;;;9.70;1.40;;;4.90;99.90;;;;;;6213189;23;20086;-83
2023/01/15 14:07:53;;;;;;;11.90;1.35;;;5.00;99.90;;;;;;6184395;23;20017;-81
2023/01/15 14:10:33;;;;;;;8.65;1.73;;;5.00;99.90;;;;;;6185338;23;20012;-82
2023/01/15 14:13:36;;;;;;;8.07;1.20;;;5.30;99.90;;;;;;6186879;23;20395;-82